sensor_id;sensor_type;location;lat;lon;timestamp;temperature;humidity
13052;DHT22;6592;47.484;9.726;2022-09-27T00:02:04;12.00;99.90
13052;DHT22;6592;47.484;9.726;2022-09-27T00:04:33;12.00;99.90
13052;DHT22;6592;47.484;9.726;2022-09-27T00:07:02;12.00;99.90
13052;DHT22;6592;47.484;9.726;2022-09-27T00:09:31;12.00;99.90
13052;DHT22;6592;47.484;9.726;2022-09-27T00:12:00;11.90;99.90
13052;DHT22;6592;47.484;9.726;2022-09-27T00:14:28;11.90;99.90
13052;DHT22;6592;47.484;9.726;2022-09-27T00:16:57;11.90;99.90
13052;DHT22;6592;47.484;9.726;2022-09-27T00:19:25;11.90;99.90
13052;DHT22;6592;47.484;9.726;2022-09-27T00:21:53;11.90;99.90
13052;DHT22;6592;47.484;9.726;2022-09-27T00:24:24;11.90;99.90
13052;DHT22;6592;47.484;9.726;2022-09-27T00:26:53;11.90;99.90
13052;DHT22;6592;47.484;9.726;2022-09-27T00:29:21;11.90;99.90
13052;DHT22;6592;47.484;9.726;2022-09-27T00:31:50;11.90;99.90
13052;DHT22;6592;47.484;9.726;2022-09-27T00:34:21;11.90;99.90
13052;DHT22;6592;47.484;9.726;2022-09-27T00:36:50;11.90;99.90
13052;DHT22;6592;47.484;9.726;2022-09-27T00:39:19;11.90;99.90
13052;DHT22;6592;47.484;9.726;2022-09-27T00:41:48;11.80;99.90
13052;DHT22;6592;47.484;9.726;2022-09-27T00:47:39;11.80;99.90
13052;DHT22;6592;47.484;9.726;2022-09-27T00:50:20;11.80;99.90
13052;DHT22;6592;47.484;9.726;2022-09-27T00:52:57;11.80;99.90
13052;DHT22;6592;47.484;9.726;2022-09-27T00:55:30;11.70;99.90
13052;DHT22;6592;47.484;9.726;2022-09-27T00:58:02;11.70;99.90
13052;DHT22;6592;47.484;9.726;2022-09-27T01:00:31;11.60;99.90
13052;DHT22;6592;47.484;9.726;2022-09-27T01:03:00;11.60;99.90
13052;DHT22;6592;47.484;9.726;2022-09-27T01:05:31;11.60;99.90
13052;DHT22;6592;47.484;9.726;2022-09-27T01:07:59;11.50;99.90
13052;DHT22;6592;47.484;9.726;2022-09-27T01:10:31;11.50;99.90
13052;DHT22;6592;47.484;9.726;2022-09-27T01:13:12;11.40;99.90
13052;DHT22;6592;47.484;9.726;2022-09-27T01:15:47;11.40;99.90
13052;DHT22;6592;47.484;9.726;2022-09-27T01:18:31;11.30;99.90
13052;DHT22;6592;47.484;9.726;2022-09-27T01:21:09;11.30;99.90
13052;DHT22;6592;47.484;9.726;2022-09-27T01:24:30;11.20;99.90
13052;DHT22;6592;47.484;9.726;2022-09-27T01:30:22;11.00;99.90
13052;DHT22;6592;47.484;9.726;2022-09-27T01:33:00;11.00;99.90
13052;DHT22;6592;47.484;9.726;2022-09-27T01:35:34;11.00;99.90
13052;DHT22;6592;47.484;9.726;2022-09-27T01:38:11;11.00;99.90
13052;DHT22;6592;47.484;9.726;2022-09-27T01:40:48;11.00;99.90
13052;DHT22;6592;47.484;9.726;2022-09-27T01:43:21;11.00;99.90
13052;DHT22;6592;47.484;9.726;2022-09-27T01:45:55;11.00;99.90
13052;DHT22;6592;47.484;9.726;2022-09-27T01:48:30;10.90;99.90
13052;DHT22;6592;47.484;9.726;2022-09-27T01:51:04;10.90;99.90
13052;DHT22;6592;47.484;9.726;2022-09-27T01:53:37;10.90;99.90
13052;DHT22;6592;47.484;9.726;2022-09-27T01:56:09;10.90;99.90
13052;DHT22;6592;47.484;9.726;2022-09-27T01:58:43;10.90;99.90
13052;DHT22;6592;47.484;9.726;2022-09-27T02:01:15;10.90;99.90
13052;DHT22;6592;47.484;9.726;2022-09-27T02:03:47;10.90;99.90
13052;DHT22;6592;47.484;9.726;2022-09-27T02:06:17;11.00;99.90
13052;DHT22;6592;47.484;9.726;2022-09-27T02:08:50;11.00;99.90
13052;DHT22;6592;47.484;9.726;2022-09-27T02:11:20;10.90;99.90
13052;DHT22;6592;47.484;9.726;2022-09-27T02:13:52;10.80;99.90
13052;DHT22;6592;47.484;9.726;2022-09-27T02:16:28;10.80;99.90
13052;DHT22;6592;47.484;9.726;2022-09-27T02:19:07;10.90;99.90
13052;DHT22;6592;47.484;9.726;2022-09-27T02:21:41;10.90;99.90
13052;DHT22;6592;47.484;9.726;2022-09-27T02:24:15;10.90;99.90
13052;DHT22;6592;47.484;9.726;2022-09-27T02:26:50;10.90;99.90
13052;DHT22;6592;47.484;9.726;2022-09-27T02:29:24;11.00;99.90
13052;DHT22;6592;47.484;9.726;2022-09-27T02:31:56;11.00;99.90
13052;DHT22;6592;47.484;9.726;2022-09-27T02:34:27;11.00;99.90
13052;DHT22;6592;47.484;9.726;2022-09-27T02:36:56;11.00;99.90
13052;DHT22;6592;47.484;9.726;2022-09-27T02:39:25;11.00;99.90
13052;DHT22;6592;47.484;9.726;2022-09-27T02:41:55;11.00;99.90
13052;DHT22;6592;47.484;9.726;2022-09-27T02:44:26;11.00;99.90
13052;DHT22;6592;47.484;9.726;2022-09-27T02:49:59;11.00;99.90
13052;DHT22;6592;47.484;9.726;2022-09-27T02:52:37;11.00;99.90
13052;DHT22;6592;47.484;9.726;2022-09-27T02:55:17;10.90;99.90
13052;DHT22;6592;47.484;9.726;2022-09-27T02:57:55;10.90;99.90
13052;DHT22;6592;47.484;9.726;2022-09-27T03:00:33;10.90;99.90
13052;DHT22;6592;47.484;9.726;2022-09-27T03:03:08;11.00;99.90
13052;DHT22;6592;47.484;9.726;2022-09-27T03:05:44;11.00;99.90
13052;DHT22;6592;47.484;9.726;2022-09-27T03:08:13;11.00;99.90
13052;DHT22;6592;47.484;9.726;2022-09-27T03:10:42;10.90;99.90
13052;DHT22;6592;47.484;9.726;2022-09-27T03:13:11;10.90;99.90
13052;DHT22;6592;47.484;9.726;2022-09-27T03:15:39;10.90;99.90
13052;DHT22;6592;47.484;9.726;2022-09-27T03:18:09;10.90;99.90
13052;DHT22;6592;47.484;9.726;2022-09-27T03:20:37;10.80;99.90
13052;DHT22;6592;47.484;9.726;2022-09-27T03:23:06;10.80;99.90
13052;DHT22;6592;47.484;9.726;2022-09-27T03:25:34;10.90;99.90
13052;DHT22;6592;47.484;9.726;2022-09-27T03:28:02;10.90;99.90
13052;DHT22;6592;47.484;9.726;2022-09-27T03:30:32;10.90;99.90
13052;DHT22;6592;47.484;9.726;2022-09-27T03:33:02;11.00;99.90
13052;DHT22;6592;47.484;9.726;2022-09-27T03:35:31;11.00;99.90
13052;DHT22;6592;47.484;9.726;2022-09-27T03:38:00;11.00;99.90
13052;DHT22;6592;47.484;9.726;2022-09-27T03:40:28;11.00;99.90
13052;DHT22;6592;47.484;9.726;2022-09-27T03:42:57;11.00;99.90
13052;DHT22;6592;47.484;9.726;2022-09-27T03:45:25;11.00;99.90
13052;DHT22;6592;47.484;9.726;2022-09-27T03:47:53;11.00;99.90
13052;DHT22;6592;47.484;9.726;2022-09-27T03:50:22;11.00;99.90
13052;DHT22;6592;47.484;9.726;2022-09-27T03:52:52;11.00;99.90
13052;DHT22;6592;47.484;9.726;2022-09-27T03:55:20;11.00;99.90
13052;DHT22;6592;47.484;9.726;2022-09-27T03:57:49;11.00;99.90
13052;DHT22;6592;47.484;9.726;2022-09-27T04:00:17;11.00;99.90
13052;DHT22;6592;47.484;9.726;2022-09-27T04:02:45;11.10;99.90
13052;DHT22;6592;47.484;9.726;2022-09-27T04:05:14;11.10;99.90
13052;DHT22;6592;47.484;9.726;2022-09-27T04:07:45;11.10;99.90
13052;DHT22;6592;47.484;9.726;2022-09-27T04:10:15;11.10;99.90
13052;DHT22;6592;47.484;9.726;2022-09-27T04:12:44;11.10;99.90
13052;DHT22;6592;47.484;9.726;2022-09-27T04:15:12;11.20;99.90
13052;DHT22;6592;47.484;9.726;2022-09-27T04:17:41;11.20;99.90
13052;DHT22;6592;47.484;9.726;2022-09-27T04:20:09;11.20;99.90
13052;DHT22;6592;47.484;9.726;2022-09-27T04:22:39;11.20;99.90
13052;DHT22;6592;47.484;9.726;2022-09-27T04:25:10;11.20;99.90
13052;DHT22;6592;47.484;9.726;2022-09-27T04:27:43;11.20;99.90
13052;DHT22;6592;47.484;9.726;2022-09-27T04:30:13;11.10;99.90
13052;DHT22;6592;47.484;9.726;2022-09-27T04:32:41;11.10;99.90
13052;DHT22;6592;47.484;9.726;2022-09-27T04:35:11;11.10;99.90
13052;DHT22;6592;47.484;9.726;2022-09-27T04:37:57;11.00;99.90
13052;DHT22;6592;47.484;9.726;2022-09-27T04:40:25;11.00;99.90
13052;DHT22;6592;47.484;9.726;2022-09-27T04:42:55;11.00;99.90
13052;DHT22;6592;47.484;9.726;2022-09-27T04:45:23;11.00;99.90
13052;DHT22;6592;47.484;9.726;2022-09-27T04:47:52;10.90;99.90
13052;DHT22;6592;47.484;9.726;2022-09-27T04:50:20;11.10;99.90
13052;DHT22;6592;47.484;9.726;2022-09-27T04:52:49;11.10;99.90
13052;DHT22;6592;47.484;9.726;2022-09-27T04:55:20;11.10;99.90
13052;DHT22;6592;47.484;9.726;2022-09-27T04:57:48;11.20;99.90
13052;DHT22;6592;47.484;9.726;2022-09-27T05:00:19;11.20;99.90
13052;DHT22;6592;47.484;9.726;2022-09-27T05:02:47;11.20;99.90
13052;DHT22;6592;47.484;9.726;2022-09-27T05:05:15;11.20;99.90
13052;DHT22;6592;47.484;9.726;2022-09-27T05:07:44;11.20;99.90
13052;DHT22;6592;47.484;9.726;2022-09-27T05:10:12;11.20;99.90
13052;DHT22;6592;47.484;9.726;2022-09-27T05:12:40;11.20;99.90
13052;DHT22;6592;47.484;9.726;2022-09-27T05:15:09;11.20;99.90
13052;DHT22;6592;47.484;9.726;2022-09-27T05:17:39;11.20;99.90
13052;DHT22;6592;47.484;9.726;2022-09-27T05:20:08;11.20;99.90
13052;DHT22;6592;47.484;9.726;2022-09-27T05:22:39;11.10;99.90
13052;DHT22;6592;47.484;9.726;2022-09-27T05:25:08;11.20;99.90
13052;DHT22;6592;47.484;9.726;2022-09-27T05:27:36;11.20;99.90
13052;DHT22;6592;47.484;9.726;2022-09-27T05:30:05;11.20;99.90
13052;DHT22;6592;47.484;9.726;2022-09-27T05:32:34;11.10;99.90
13052;DHT22;6592;47.484;9.726;2022-09-27T05:35:04;11.20;99.90
13052;DHT22;6592;47.484;9.726;2022-09-27T05:37:33;11.20;99.90
13052;DHT22;6592;47.484;9.726;2022-09-27T05:40:01;11.20;99.90
13052;DHT22;6592;47.484;9.726;2022-09-27T05:42:51;11.10;99.90
13052;DHT22;6592;47.484;9.726;2022-09-27T05:45:20;11.10;99.90
13052;DHT22;6592;47.484;9.726;2022-09-27T05:47:53;11.20;99.90
13052;DHT22;6592;47.484;9.726;2022-09-27T05:50:24;11.10;99.90
13052;DHT22;6592;47.484;9.726;2022-09-27T05:52:53;11.10;99.90
13052;DHT22;6592;47.484;9.726;2022-09-27T05:55:22;11.00;99.90
13052;DHT22;6592;47.484;9.726;2022-09-27T05:57:55;11.00;99.90
13052;DHT22;6592;47.484;9.726;2022-09-27T06:00:24;10.90;99.90
13052;DHT22;6592;47.484;9.726;2022-09-27T06:02:54;10.90;99.90
13052;DHT22;6592;47.484;9.726;2022-09-27T06:05:26;10.90;99.90
13052;DHT22;6592;47.484;9.726;2022-09-27T06:07:58;10.90;99.90
13052;DHT22;6592;47.484;9.726;2022-09-27T06:10:28;10.90;99.90
13052;DHT22;6592;47.484;9.726;2022-09-27T06:12:59;10.90;99.90
13052;DHT22;6592;47.484;9.726;2022-09-27T06:15:28;10.90;99.90
13052;DHT22;6592;47.484;9.726;2022-09-27T06:18:02;10.90;99.90
13052;DHT22;6592;47.484;9.726;2022-09-27T06:20:33;10.80;99.90
13052;DHT22;6592;47.484;9.726;2022-09-27T06:23:06;10.70;99.90
13052;DHT22;6592;47.484;9.726;2022-09-27T06:25:35;10.70;99.90
13052;DHT22;6592;47.484;9.726;2022-09-27T06:28:03;10.60;99.90
13052;DHT22;6592;47.484;9.726;2022-09-27T06:30:32;10.50;99.90
13052;DHT22;6592;47.484;9.726;2022-09-27T06:33:01;10.40;99.90
13052;DHT22;6592;47.484;9.726;2022-09-27T06:35:30;10.40;99.90
13052;DHT22;6592;47.484;9.726;2022-09-27T06:38:02;10.40;99.90
13052;DHT22;6592;47.484;9.726;2022-09-27T06:40:31;10.40;99.90
13052;DHT22;6592;47.484;9.726;2022-09-27T06:43:02;10.40;99.90
13052;DHT22;6592;47.484;9.726;2022-09-27T06:45:31;10.40;99.90
13052;DHT22;6592;47.484;9.726;2022-09-27T06:48:01;10.40;99.90
13052;DHT22;6592;47.484;9.726;2022-09-27T06:50:30;10.50;99.90
13052;DHT22;6592;47.484;9.726;2022-09-27T06:53:00;10.50;99.90
13052;DHT22;6592;47.484;9.726;2022-09-27T06:55:28;10.60;99.90
13052;DHT22;6592;47.484;9.726;2022-09-27T06:57:58;10.60;99.90
13052;DHT22;6592;47.484;9.726;2022-09-27T07:00:45;10.70;99.90
13052;DHT22;6592;47.484;9.726;2022-09-27T07:03:16;10.70;99.90
13052;DHT22;6592;47.484;9.726;2022-09-27T07:05:54;10.80;99.90
13052;DHT22;6592;47.484;9.726;2022-09-27T07:08:24;10.80;99.90
13052;DHT22;6592;47.484;9.726;2022-09-27T07:10:54;10.80;99.90
13052;DHT22;6592;47.484;9.726;2022-09-27T07:13:23;10.90;99.90
13052;DHT22;6592;47.484;9.726;2022-09-27T07:15:52;10.80;99.90
13052;DHT22;6592;47.484;9.726;2022-09-27T07:18:20;10.80;99.90
13052;DHT22;6592;47.484;9.726;2022-09-27T07:20:49;10.80;99.90
13052;DHT22;6592;47.484;9.726;2022-09-27T07:23:17;10.90;99.90
13052;DHT22;6592;47.484;9.726;2022-09-27T07:25:47;10.90;99.90
13052;DHT22;6592;47.484;9.726;2022-09-27T07:28:17;10.90;99.90
13052;DHT22;6592;47.484;9.726;2022-09-27T07:30:48;11.00;99.90
13052;DHT22;6592;47.484;9.726;2022-09-27T07:33:16;10.90;99.90
13052;DHT22;6592;47.484;9.726;2022-09-27T07:35:45;10.80;99.90
13052;DHT22;6592;47.484;9.726;2022-09-27T07:38:13;10.70;99.90
13052;DHT22;6592;47.484;9.726;2022-09-27T07:40:42;10.70;99.90
13052;DHT22;6592;47.484;9.726;2022-09-27T07:43:12;10.70;99.90
13052;DHT22;6592;47.484;9.726;2022-09-27T07:45:40;10.70;99.90
13052;DHT22;6592;47.484;9.726;2022-09-27T07:48:12;10.70;99.90
13052;DHT22;6592;47.484;9.726;2022-09-27T07:50:41;10.70;99.90
13052;DHT22;6592;47.484;9.726;2022-09-27T07:53:09;10.70;99.90
13052;DHT22;6592;47.484;9.726;2022-09-27T07:55:40;10.60;99.90
13052;DHT22;6592;47.484;9.726;2022-09-27T07:58:09;10.40;99.90
13052;DHT22;6592;47.484;9.726;2022-09-27T08:00:40;10.30;99.90
13052;DHT22;6592;47.484;9.726;2022-09-27T08:03:10;10.30;99.90
13052;DHT22;6592;47.484;9.726;2022-09-27T08:05:42;10.10;99.90
13052;DHT22;6592;47.484;9.726;2022-09-27T08:08:11;10.10;99.90
13052;DHT22;6592;47.484;9.726;2022-09-27T08:10:39;10.10;99.90
13052;DHT22;6592;47.484;9.726;2022-09-27T08:13:10;10.00;99.90
13052;DHT22;6592;47.484;9.726;2022-09-27T08:15:40;10.00;99.90
13052;DHT22;6592;47.484;9.726;2022-09-27T08:18:08;10.10;99.90
13052;DHT22;6592;47.484;9.726;2022-09-27T08:20:36;10.10;99.90
13052;DHT22;6592;47.484;9.726;2022-09-27T08:23:06;10.10;99.90
13052;DHT22;6592;47.484;9.726;2022-09-27T08:25:34;10.00;99.90
13052;DHT22;6592;47.484;9.726;2022-09-27T08:28:03;10.00;99.90
13052;DHT22;6592;47.484;9.726;2022-09-27T08:30:31;9.90;99.90
13052;DHT22;6592;47.484;9.726;2022-09-27T08:33:10;9.90;99.90
13052;DHT22;6592;47.484;9.726;2022-09-27T08:35:38;9.80;99.90
13052;DHT22;6592;47.484;9.726;2022-09-27T08:38:07;9.80;99.90
13052;DHT22;6592;47.484;9.726;2022-09-27T08:40:49;9.70;99.90
13052;DHT22;6592;47.484;9.726;2022-09-27T08:43:29;9.60;99.90
13052;DHT22;6592;47.484;9.726;2022-09-27T08:46:15;9.50;99.90
13052;DHT22;6592;47.484;9.726;2022-09-27T08:48:50;9.40;99.90
13052;DHT22;6592;47.484;9.726;2022-09-27T08:51:24;9.40;99.90
13052;DHT22;6592;47.484;9.726;2022-09-27T08:53:56;9.40;99.90
13052;DHT22;6592;47.484;9.726;2022-09-27T08:56:27;9.40;99.90
13052;DHT22;6592;47.484;9.726;2022-09-27T08:58:59;9.40;99.90
13052;DHT22;6592;47.484;9.726;2022-09-27T09:01:29;9.50;99.90
13052;DHT22;6592;47.484;9.726;2022-09-27T09:04:01;9.60;99.90
13052;DHT22;6592;47.484;9.726;2022-09-27T09:06:35;9.60;99.90
13052;DHT22;6592;47.484;9.726;2022-09-27T09:09:19;9.60;99.90
13052;DHT22;6592;47.484;9.726;2022-09-27T09:11:59;9.80;99.90
13052;DHT22;6592;47.484;9.726;2022-09-27T09:15:03;10.10;99.90
13052;DHT22;6592;47.484;9.726;2022-09-27T09:17:56;10.30;99.90
13052;DHT22;6592;47.484;9.726;2022-09-27T09:20:38;10.60;99.90
13052;DHT22;6592;47.484;9.726;2022-09-27T09:26:14;10.90;99.90
13052;DHT22;6592;47.484;9.726;2022-09-27T09:29:05;11.00;99.90
13052;DHT22;6592;47.484;9.726;2022-09-27T09:31:41;11.30;99.90
13052;DHT22;6592;47.484;9.726;2022-09-27T09:34:17;11.80;99.90
13052;DHT22;6592;47.484;9.726;2022-09-27T09:36:52;13.50;99.90
13052;DHT22;6592;47.484;9.726;2022-09-27T09:39:25;15.10;99.90
13052;DHT22;6592;47.484;9.726;2022-09-27T09:42:05;16.20;99.90
13052;DHT22;6592;47.484;9.726;2022-09-27T09:44:44;17.30;99.90
13052;DHT22;6592;47.484;9.726;2022-09-27T09:47:20;17.90;99.90
13052;DHT22;6592;47.484;9.726;2022-09-27T09:49:53;18.00;99.90
13052;DHT22;6592;47.484;9.726;2022-09-27T09:52:39;18.40;99.90
13052;DHT22;6592;47.484;9.726;2022-09-27T09:55:16;17.60;99.90
13052;DHT22;6592;47.484;9.726;2022-09-27T09:57:55;17.20;99.90
13052;DHT22;6592;47.484;9.726;2022-09-27T10:00:26;17.40;99.90
13052;DHT22;6592;47.484;9.726;2022-09-27T10:02:58;17.30;99.90
13052;DHT22;6592;47.484;9.726;2022-09-27T10:05:27;16.70;99.90
13052;DHT22;6592;47.484;9.726;2022-09-27T10:07:59;16.00;99.90
13052;DHT22;6592;47.484;9.726;2022-09-27T10:10:28;15.30;99.90
13052;DHT22;6592;47.484;9.726;2022-09-27T10:12:57;14.90;99.90
13052;DHT22;6592;47.484;9.726;2022-09-27T10:15:28;14.40;99.90
13052;DHT22;6592;47.484;9.726;2022-09-27T10:17:58;14.00;99.90
13052;DHT22;6592;47.484;9.726;2022-09-27T10:20:32;13.70;99.90
13052;DHT22;6592;47.484;9.726;2022-09-27T10:23:08;13.70;99.90
13052;DHT22;6592;47.484;9.726;2022-09-27T10:25:46;13.60;99.90
13052;DHT22;6592;47.484;9.726;2022-09-27T10:28:35;13.30;99.90
13052;DHT22;6592;47.484;9.726;2022-09-27T10:31:06;13.20;99.90
13052;DHT22;6592;47.484;9.726;2022-09-27T10:33:37;13.10;99.90
13052;DHT22;6592;47.484;9.726;2022-09-27T10:36:22;12.90;99.90
13052;DHT22;6592;47.484;9.726;2022-09-27T10:38:54;12.80;99.90
13052;DHT22;6592;47.484;9.726;2022-09-27T10:41:24;12.60;99.90
13052;DHT22;6592;47.484;9.726;2022-09-27T10:43:54;12.60;99.90
13052;DHT22;6592;47.484;9.726;2022-09-27T10:46:25;12.60;99.90
13052;DHT22;6592;47.484;9.726;2022-09-27T10:49:09;12.60;99.90
13052;DHT22;6592;47.484;9.726;2022-09-27T10:51:41;12.70;99.90
13052;DHT22;6592;47.484;9.726;2022-09-27T10:54:20;13.00;99.90
13052;DHT22;6592;47.484;9.726;2022-09-27T10:56:57;13.30;99.90
13052;DHT22;6592;47.484;9.726;2022-09-27T10:59:27;13.50;99.90
13052;DHT22;6592;47.484;9.726;2022-09-27T11:01:58;13.20;99.90
13052;DHT22;6592;47.484;9.726;2022-09-27T11:04:29;13.10;99.90
13052;DHT22;6592;47.484;9.726;2022-09-27T11:07:13;12.90;99.90
13052;DHT22;6592;47.484;9.726;2022-09-27T11:09:51;12.70;99.90
13052;DHT22;6592;47.484;9.726;2022-09-27T11:12:21;12.50;99.90
13052;DHT22;6592;47.484;9.726;2022-09-27T11:14:55;12.40;99.90
13052;DHT22;6592;47.484;9.726;2022-09-27T11:17:33;12.30;99.90
13052;DHT22;6592;47.484;9.726;2022-09-27T11:20:18;12.30;99.90
13052;DHT22;6592;47.484;9.726;2022-09-27T11:23:22;12.30;99.90
13052;DHT22;6592;47.484;9.726;2022-09-27T11:26:04;12.40;99.90
13052;DHT22;6592;47.484;9.726;2022-09-27T11:28:43;12.40;99.90
13052;DHT22;6592;47.484;9.726;2022-09-27T11:31:22;12.30;99.90
13052;DHT22;6592;47.484;9.726;2022-09-27T11:34:20;12.20;99.90
13052;DHT22;6592;47.484;9.726;2022-09-27T11:37:02;12.20;99.90
13052;DHT22;6592;47.484;9.726;2022-09-27T11:39:45;12.10;99.90
13052;DHT22;6592;47.484;9.726;2022-09-27T11:45:23;12.00;99.90
13052;DHT22;6592;47.484;9.726;2022-09-27T11:48:25;11.90;99.90
13052;DHT22;6592;47.484;9.726;2022-09-27T11:51:11;11.80;99.90
13052;DHT22;6592;47.484;9.726;2022-09-27T11:53:52;11.80;99.90
13052;DHT22;6592;47.484;9.726;2022-09-27T11:56:33;11.90;99.90
13052;DHT22;6592;47.484;9.726;2022-09-27T11:59:32;11.90;99.90
13052;DHT22;6592;47.484;9.726;2022-09-27T12:02:15;11.90;99.90
13052;DHT22;6592;47.484;9.726;2022-09-27T12:05:01;12.00;99.90
13052;DHT22;6592;47.484;9.726;2022-09-27T12:07:37;12.00;99.90
13052;DHT22;6592;47.484;9.726;2022-09-27T12:10:10;12.00;99.90
13052;DHT22;6592;47.484;9.726;2022-09-27T12:12:42;12.00;99.90
13052;DHT22;6592;47.484;9.726;2022-09-27T12:15:16;12.00;99.90
13052;DHT22;6592;47.484;9.726;2022-09-27T12:17:47;12.10;99.90
13052;DHT22;6592;47.484;9.726;2022-09-27T12:20:19;12.20;99.90
13052;DHT22;6592;47.484;9.726;2022-09-27T12:22:49;12.30;99.90
13052;DHT22;6592;47.484;9.726;2022-09-27T12:25:28;12.30;99.90
13052;DHT22;6592;47.484;9.726;2022-09-27T12:28:02;12.30;99.90
13052;DHT22;6592;47.484;9.726;2022-09-27T12:30:36;12.40;99.90
13052;DHT22;6592;47.484;9.726;2022-09-27T12:33:09;12.40;99.90
13052;DHT22;6592;47.484;9.726;2022-09-27T12:35:43;12.40;99.90
13052;DHT22;6592;47.484;9.726;2022-09-27T12:38:16;12.40;99.90
13052;DHT22;6592;47.484;9.726;2022-09-27T12:40:49;12.30;99.90
13052;DHT22;6592;47.484;9.726;2022-09-27T12:43:20;12.30;99.90
13052;DHT22;6592;47.484;9.726;2022-09-27T12:45:58;12.30;99.90
13052;DHT22;6592;47.484;9.726;2022-09-27T12:48:37;12.30;99.90
13052;DHT22;6592;47.484;9.726;2022-09-27T12:51:08;12.20;99.90
13052;DHT22;6592;47.484;9.726;2022-09-27T12:53:51;12.20;99.90
13052;DHT22;6592;47.484;9.726;2022-09-27T12:56:31;12.10;99.90
13052;DHT22;6592;47.484;9.726;2022-09-27T12:59:23;12.30;99.90
13052;DHT22;6592;47.484;9.726;2022-09-27T13:02:17;12.60;99.90
13052;DHT22;6592;47.484;9.726;2022-09-27T13:05:09;13.20;99.90
13052;DHT22;6592;47.484;9.726;2022-09-27T13:07:47;14.40;99.90
13052;DHT22;6592;47.484;9.726;2022-09-27T13:10:39;15.50;99.90
13052;DHT22;6592;47.484;9.726;2022-09-27T13:13:10;15.50;99.90
13052;DHT22;6592;47.484;9.726;2022-09-27T13:15:43;15.50;99.90
13052;DHT22;6592;47.484;9.726;2022-09-27T13:18:29;15.30;99.90
13052;DHT22;6592;47.484;9.726;2022-09-27T13:20:58;15.10;99.90
13052;DHT22;6592;47.484;9.726;2022-09-27T13:23:56;14.70;99.90
13052;DHT22;6592;47.484;9.726;2022-09-27T13:26:46;14.50;99.90
13052;DHT22;6592;47.484;9.726;2022-09-27T13:29:26;14.90;99.90
13052;DHT22;6592;47.484;9.726;2022-09-27T13:34:49;15.00;99.90
13052;DHT22;6592;47.484;9.726;2022-09-27T13:37:31;14.90;99.90
13052;DHT22;6592;47.484;9.726;2022-09-27T13:40:29;14.60;99.90
13052;DHT22;6592;47.484;9.726;2022-09-27T13:46:00;14.00;99.90
13052;DHT22;6592;47.484;9.726;2022-09-27T13:48:39;13.70;99.90
13052;DHT22;6592;47.484;9.726;2022-09-27T13:51:23;13.60;99.90
13052;DHT22;6592;47.484;9.726;2022-09-27T13:53:57;13.40;99.90
13052;DHT22;6592;47.484;9.726;2022-09-27T13:56:51;13.30;99.90
13052;DHT22;6592;47.484;9.726;2022-09-27T13:59:23;13.40;99.90
13052;DHT22;6592;47.484;9.726;2022-09-27T14:01:58;13.60;99.90
13052;DHT22;6592;47.484;9.726;2022-09-27T14:04:29;13.70;99.90
13052;DHT22;6592;47.484;9.726;2022-09-27T14:07:03;13.80;99.90
13052;DHT22;6592;47.484;9.726;2022-09-27T14:09:32;13.90;99.90
13052;DHT22;6592;47.484;9.726;2022-09-27T14:12:07;14.00;99.90
13052;DHT22;6592;47.484;9.726;2022-09-27T14:14:38;14.20;99.90
13052;DHT22;6592;47.484;9.726;2022-09-27T14:17:09;14.30;99.90
13052;DHT22;6592;47.484;9.726;2022-09-27T14:19:39;14.20;99.90
13052;DHT22;6592;47.484;9.726;2022-09-27T14:22:13;14.20;99.90
13052;DHT22;6592;47.484;9.726;2022-09-27T14:24:46;14.10;99.90
13052;DHT22;6592;47.484;9.726;2022-09-27T14:27:17;14.00;99.90
13052;DHT22;6592;47.484;9.726;2022-09-27T14:29:48;13.90;99.90
13052;DHT22;6592;47.484;9.726;2022-09-27T14:32:21;13.90;99.90
13052;DHT22;6592;47.484;9.726;2022-09-27T14:35:06;13.90;99.90
13052;DHT22;6592;47.484;9.726;2022-09-27T14:37:57;14.00;99.90
13052;DHT22;6592;47.484;9.726;2022-09-27T14:40:37;14.20;99.90
13052;DHT22;6592;47.484;9.726;2022-09-27T14:43:15;14.50;99.90
13052;DHT22;6592;47.484;9.726;2022-09-27T14:45:44;14.70;99.90
13052;DHT22;6592;47.484;9.726;2022-09-27T14:48:19;14.70;99.90
13052;DHT22;6592;47.484;9.726;2022-09-27T14:50:56;14.60;99.90
13052;DHT22;6592;47.484;9.726;2022-09-27T14:53:35;14.40;99.90
13052;DHT22;6592;47.484;9.726;2022-09-27T14:56:03;14.30;99.90
13052;DHT22;6592;47.484;9.726;2022-09-27T14:58:34;14.20;99.90
13052;DHT22;6592;47.484;9.726;2022-09-27T15:01:14;14.10;99.90
13052;DHT22;6592;47.484;9.726;2022-09-27T15:03:44;14.00;99.90
13052;DHT22;6592;47.484;9.726;2022-09-27T15:06:15;14.00;99.90
13052;DHT22;6592;47.484;9.726;2022-09-27T15:08:45;14.00;99.90
13052;DHT22;6592;47.484;9.726;2022-09-27T15:11:16;14.00;99.90
13052;DHT22;6592;47.484;9.726;2022-09-27T15:13:45;14.00;99.90
13052;DHT22;6592;47.484;9.726;2022-09-27T15:16:20;13.90;99.90
13052;DHT22;6592;47.484;9.726;2022-09-27T15:18:58;13.80;99.90
13052;DHT22;6592;47.484;9.726;2022-09-27T15:21:28;13.80;99.90
13052;DHT22;6592;47.484;9.726;2022-09-27T15:23:59;13.80;99.90
13052;DHT22;6592;47.484;9.726;2022-09-27T15:26:35;13.70;99.90
13052;DHT22;6592;47.484;9.726;2022-09-27T15:29:14;13.70;99.90
13052;DHT22;6592;47.484;9.726;2022-09-27T15:31:44;13.70;99.90
13052;DHT22;6592;47.484;9.726;2022-09-27T15:34:17;13.70;99.90
13052;DHT22;6592;47.484;9.726;2022-09-27T15:36:52;13.60;99.90
13052;DHT22;6592;47.484;9.726;2022-09-27T15:39:27;13.50;99.90
13052;DHT22;6592;47.484;9.726;2022-09-27T15:42:03;13.50;99.90
13052;DHT22;6592;47.484;9.726;2022-09-27T15:44:50;13.50;99.90
13052;DHT22;6592;47.484;9.726;2022-09-27T15:47:46;13.40;99.90
13052;DHT22;6592;47.484;9.726;2022-09-27T15:50:35;13.30;99.90
13052;DHT22;6592;47.484;9.726;2022-09-27T15:53:04;13.30;99.90
13052;DHT22;6592;47.484;9.726;2022-09-27T15:55:38;13.30;99.90
13052;DHT22;6592;47.484;9.726;2022-09-27T15:58:11;13.30;99.90
13052;DHT22;6592;47.484;9.726;2022-09-27T16:00:50;13.30;99.90
13052;DHT22;6592;47.484;9.726;2022-09-27T16:03:19;13.20;99.90
13052;DHT22;6592;47.484;9.726;2022-09-27T16:05:47;13.10;99.90
13052;DHT22;6592;47.484;9.726;2022-09-27T16:08:16;13.00;99.90
13052;DHT22;6592;47.484;9.726;2022-09-27T16:10:49;13.00;99.90
13052;DHT22;6592;47.484;9.726;2022-09-27T16:13:17;12.90;99.90
13052;DHT22;6592;47.484;9.726;2022-09-27T16:15:46;12.90;99.90
13052;DHT22;6592;47.484;9.726;2022-09-27T16:18:15;12.90;99.90
13052;DHT22;6592;47.484;9.726;2022-09-27T16:20:43;12.80;99.90
13052;DHT22;6592;47.484;9.726;2022-09-27T16:23:12;12.80;99.90
13052;DHT22;6592;47.484;9.726;2022-09-27T16:25:40;12.80;99.90
13052;DHT22;6592;47.484;9.726;2022-09-27T16:28:10;12.70;99.90
13052;DHT22;6592;47.484;9.726;2022-09-27T16:30:38;12.60;99.90
13052;DHT22;6592;47.484;9.726;2022-09-27T16:33:07;12.50;99.90
13052;DHT22;6592;47.484;9.726;2022-09-27T16:35:38;12.40;99.90
13052;DHT22;6592;47.484;9.726;2022-09-27T16:38:06;12.40;99.90
13052;DHT22;6592;47.484;9.726;2022-09-27T16:40:35;12.30;99.90
13052;DHT22;6592;47.484;9.726;2022-09-27T16:43:03;12.30;99.90
13052;DHT22;6592;47.484;9.726;2022-09-27T16:45:35;12.20;99.90
13052;DHT22;6592;47.484;9.726;2022-09-27T16:48:03;12.20;99.90
13052;DHT22;6592;47.484;9.726;2022-09-27T16:50:31;12.20;99.90